sensor_id;sensor_type;location;lat;lon;timestamp;temperature;humidity
49829;DHT22;35723;51.194;5.112;2022-11-04T00:01:45;13.50;99.90
49829;DHT22;35723;51.194;5.112;2022-11-04T00:04:13;13.50;99.90
49829;DHT22;35723;51.194;5.112;2022-11-04T00:06:40;13.30;99.90
49829;DHT22;35723;51.194;5.112;2022-11-04T00:09:08;13.30;99.90
49829;DHT22;35723;51.194;5.112;2022-11-04T00:11:34;13.20;99.90
49829;DHT22;35723;51.194;5.112;2022-11-04T00:14:19;13.40;99.90
49829;DHT22;35723;51.194;5.112;2022-11-04T00:16:45;13.40;99.90
49829;DHT22;35723;51.194;5.112;2022-11-04T00:19:29;13.50;99.90
49829;DHT22;35723;51.194;5.112;2022-11-04T00:22:15;13.50;99.90
49829;DHT22;35723;51.194;5.112;2022-11-04T00:25:00;13.40;99.90
49829;DHT22;35723;51.194;5.112;2022-11-04T00:28:23;13.30;99.90
49829;DHT22;35723;51.194;5.112;2022-11-04T00:31:08;13.30;99.90
49829;DHT22;35723;51.194;5.112;2022-11-04T00:33:54;13.20;99.90
49829;DHT22;35723;51.194;5.112;2022-11-04T00:36:20;13.20;99.90
49829;DHT22;35723;51.194;5.112;2022-11-04T00:38:47;13.30;99.90
49829;DHT22;35723;51.194;5.112;2022-11-04T00:41:13;13.30;99.90
49829;DHT22;35723;51.194;5.112;2022-11-04T00:44:01;13.20;99.90
49829;DHT22;35723;51.194;5.112;2022-11-04T00:46:29;13.20;99.90
49829;DHT22;35723;51.194;5.112;2022-11-04T00:48:55;13.10;99.90
49829;DHT22;35723;51.194;5.112;2022-11-04T00:51:21;13.20;99.90
49829;DHT22;35723;51.194;5.112;2022-11-04T00:53:48;13.10;99.90
49829;DHT22;35723;51.194;5.112;2022-11-04T00:56:13;13.10;99.90
49829;DHT22;35723;51.194;5.112;2022-11-04T00:58:39;13.10;99.90
49829;DHT22;35723;51.194;5.112;2022-11-04T01:01:09;13.20;99.90
49829;DHT22;35723;51.194;5.112;2022-11-04T01:03:35;13.30;99.90
49829;DHT22;35723;51.194;5.112;2022-11-04T01:06:01;13.20;99.90
49829;DHT22;35723;51.194;5.112;2022-11-04T01:08:27;13.20;99.90
49829;DHT22;35723;51.194;5.112;2022-11-04T01:10:53;13.20;99.90
49829;DHT22;35723;51.194;5.112;2022-11-04T01:13:18;13.10;99.90
49829;DHT22;35723;51.194;5.112;2022-11-04T01:15:44;13.10;99.90
49829;DHT22;35723;51.194;5.112;2022-11-04T01:18:10;13.00;99.90
49829;DHT22;35723;51.194;5.112;2022-11-04T01:20:35;13.10;99.90
49829;DHT22;35723;51.194;5.112;2022-11-04T01:23:01;13.10;99.90
49829;DHT22;35723;51.194;5.112;2022-11-04T01:25:26;13.00;99.90
49829;DHT22;35723;51.194;5.112;2022-11-04T01:27:52;12.90;99.90
49829;DHT22;35723;51.194;5.112;2022-11-04T01:30:18;13.00;99.90
49829;DHT22;35723;51.194;5.112;2022-11-04T01:32:43;13.00;99.90
49829;DHT22;35723;51.194;5.112;2022-11-04T01:35:09;13.10;99.90
49829;DHT22;35723;51.194;5.112;2022-11-04T01:37:35;13.10;99.90
49829;DHT22;35723;51.194;5.112;2022-11-04T01:40:00;13.10;99.90
49829;DHT22;35723;51.194;5.112;2022-11-04T01:42:26;13.00;99.90
49829;DHT22;35723;51.194;5.112;2022-11-04T01:44:54;13.00;99.90
49829;DHT22;35723;51.194;5.112;2022-11-04T01:47:31;13.00;99.90
49829;DHT22;35723;51.194;5.112;2022-11-04T01:50:08;12.90;99.90
49829;DHT22;35723;51.194;5.112;2022-11-04T01:52:47;12.90;99.90
49829;DHT22;35723;51.194;5.112;2022-11-04T01:55:21;12.90;99.90
49829;DHT22;35723;51.194;5.112;2022-11-04T01:57:49;12.80;99.90
49829;DHT22;35723;51.194;5.112;2022-11-04T02:00:16;12.80;99.90
49829;DHT22;35723;51.194;5.112;2022-11-04T02:02:57;12.70;99.90
49829;DHT22;35723;51.194;5.112;2022-11-04T02:05:24;12.60;99.90
49829;DHT22;35723;51.194;5.112;2022-11-04T02:07:53;12.60;99.90
49829;DHT22;35723;51.194;5.112;2022-11-04T02:10:22;12.70;99.90
49829;DHT22;35723;51.194;5.112;2022-11-04T02:12:49;12.70;99.90
49829;DHT22;35723;51.194;5.112;2022-11-04T02:15:18;12.70;99.90
49829;DHT22;35723;51.194;5.112;2022-11-04T02:31:42;12.60;99.90
49829;DHT22;35723;51.194;5.112;2022-11-04T02:37:00;12.60;99.90
49829;DHT22;35723;51.194;5.112;2022-11-04T02:42:18;12.50;99.90
49829;DHT22;35723;51.194;5.112;2022-11-04T02:44:58;12.40;99.90
49829;DHT22;35723;51.194;5.112;2022-11-04T02:47:28;12.40;99.90
49829;DHT22;35723;51.194;5.112;2022-11-04T02:50:04;12.50;99.90
49829;DHT22;35723;51.194;5.112;2022-11-04T02:52:41;12.50;99.90
49829;DHT22;35723;51.194;5.112;2022-11-04T02:55:39;12.60;99.90
49829;DHT22;35723;51.194;5.112;2022-11-04T02:58:08;12.60;99.90
49829;DHT22;35723;51.194;5.112;2022-11-04T03:00:36;12.70;99.90
49829;DHT22;35723;51.194;5.112;2022-11-04T03:03:11;12.70;99.90
49829;DHT22;35723;51.194;5.112;2022-11-04T03:05:41;12.80;99.90
49829;DHT22;35723;51.194;5.112;2022-11-04T03:08:14;12.80;99.90
49829;DHT22;35723;51.194;5.112;2022-11-04T03:10:49;12.70;99.90
49829;DHT22;35723;51.194;5.112;2022-11-04T03:13:20;12.80;99.90
49829;DHT22;35723;51.194;5.112;2022-11-04T03:15:52;12.80;99.90
49829;DHT22;35723;51.194;5.112;2022-11-04T03:21:12;12.70;99.90
49829;DHT22;35723;51.194;5.112;2022-11-04T03:23:40;12.70;99.90
49829;DHT22;35723;51.194;5.112;2022-11-04T03:26:19;12.70;99.90
49829;DHT22;35723;51.194;5.112;2022-11-04T03:31:35;12.80;99.90
49829;DHT22;35723;51.194;5.112;2022-11-04T03:34:05;12.70;99.90
49829;DHT22;35723;51.194;5.112;2022-11-04T03:36:30;12.70;99.90
49829;DHT22;35723;51.194;5.112;2022-11-04T03:38:56;12.70;99.90
49829;DHT22;35723;51.194;5.112;2022-11-04T03:41:42;12.60;99.90
49829;DHT22;35723;51.194;5.112;2022-11-04T03:44:10;12.50;99.90
49829;DHT22;35723;51.194;5.112;2022-11-04T03:46:36;12.50;99.90
49829;DHT22;35723;51.194;5.112;2022-11-04T03:49:03;12.40;99.90
49829;DHT22;35723;51.194;5.112;2022-11-04T03:51:29;12.40;99.90
49829;DHT22;35723;51.194;5.112;2022-11-04T03:53:55;12.40;99.90
49829;DHT22;35723;51.194;5.112;2022-11-04T04:01:58;12.50;99.90
49829;DHT22;35723;51.194;5.112;2022-11-04T04:04:55;12.50;99.90
49829;DHT22;35723;51.194;5.112;2022-11-04T04:07:32;12.40;99.90
49829;DHT22;35723;51.194;5.112;2022-11-04T04:10:19;12.40;99.90
49829;DHT22;35723;51.194;5.112;2022-11-04T04:13:30;12.40;99.90
49829;DHT22;35723;51.194;5.112;2022-11-04T04:16:06;12.40;99.90
49829;DHT22;35723;51.194;5.112;2022-11-04T04:18:46;12.40;99.90
49829;DHT22;35723;51.194;5.112;2022-11-04T04:21:16;12.40;99.90
49829;DHT22;35723;51.194;5.112;2022-11-04T04:23:44;12.50;99.90
49829;DHT22;35723;51.194;5.112;2022-11-04T04:26:29;12.50;99.90
49829;DHT22;35723;51.194;5.112;2022-11-04T04:29:16;12.40;99.90
49829;DHT22;35723;51.194;5.112;2022-11-04T04:31:42;12.50;99.90
49829;DHT22;35723;51.194;5.112;2022-11-04T04:34:24;12.50;99.90
49829;DHT22;35723;51.194;5.112;2022-11-04T04:36:57;12.40;99.90
49829;DHT22;35723;51.194;5.112;2022-11-04T04:39:31;12.50;99.90
49829;DHT22;35723;51.194;5.112;2022-11-04T04:42:16;12.50;99.90
49829;DHT22;35723;51.194;5.112;2022-11-04T04:45:03;12.50;99.90
49829;DHT22;35723;51.194;5.112;2022-11-04T04:47:44;12.50;99.90
49829;DHT22;35723;51.194;5.112;2022-11-04T04:50:14;12.50;99.90
49829;DHT22;35723;51.194;5.112;2022-11-04T04:52:44;12.30;99.90
49829;DHT22;35723;51.194;5.112;2022-11-04T04:55:10;12.40;99.90
49829;DHT22;35723;51.194;5.112;2022-11-04T04:57:36;12.50;99.90
49829;DHT22;35723;51.194;5.112;2022-11-04T05:00:03;12.40;99.90
49829;DHT22;35723;51.194;5.112;2022-11-04T05:02:29;12.50;99.90
49829;DHT22;35723;51.194;5.112;2022-11-04T05:04:55;12.50;99.90
49829;DHT22;35723;51.194;5.112;2022-11-04T05:07:21;12.50;99.90
49829;DHT22;35723;51.194;5.112;2022-11-04T05:09:46;12.50;99.90
49829;DHT22;35723;51.194;5.112;2022-11-04T05:12:12;12.50;99.90
49829;DHT22;35723;51.194;5.112;2022-11-04T05:14:38;12.40;99.90
49829;DHT22;35723;51.194;5.112;2022-11-04T05:17:03;12.50;99.90
49829;DHT22;35723;51.194;5.112;2022-11-04T05:19:29;12.60;99.90
49829;DHT22;35723;51.194;5.112;2022-11-04T05:21:55;12.60;99.90
49829;DHT22;35723;51.194;5.112;2022-11-04T05:24:20;12.60;99.90
49829;DHT22;35723;51.194;5.112;2022-11-04T05:26:46;12.60;99.90
49829;DHT22;35723;51.194;5.112;2022-11-04T05:29:11;12.60;99.90
49829;DHT22;35723;51.194;5.112;2022-11-04T05:31:38;12.50;99.90
49829;DHT22;35723;51.194;5.112;2022-11-04T05:34:04;12.50;99.90
49829;DHT22;35723;51.194;5.112;2022-11-04T05:36:30;12.50;99.90
49829;DHT22;35723;51.194;5.112;2022-11-04T05:38:58;12.60;99.90
49829;DHT22;35723;51.194;5.112;2022-11-04T05:41:23;12.50;99.90
49829;DHT22;35723;51.194;5.112;2022-11-04T05:43:57;12.50;99.90
49829;DHT22;35723;51.194;5.112;2022-11-04T05:46:24;12.60;99.90
49829;DHT22;35723;51.194;5.112;2022-11-04T05:48:49;12.60;99.90
49829;DHT22;35723;51.194;5.112;2022-11-04T05:51:17;12.60;99.90
49829;DHT22;35723;51.194;5.112;2022-11-04T05:53:44;12.60;99.90
49829;DHT22;35723;51.194;5.112;2022-11-04T05:56:10;12.60;99.90
49829;DHT22;35723;51.194;5.112;2022-11-04T05:58:35;12.60;99.90
49829;DHT22;35723;51.194;5.112;2022-11-04T06:01:31;12.60;99.90
49829;DHT22;35723;51.194;5.112;2022-11-04T06:03:58;12.70;99.90
49829;DHT22;35723;51.194;5.112;2022-11-04T06:06:26;12.60;99.90
49829;DHT22;35723;51.194;5.112;2022-11-04T06:08:52;12.60;99.90
49829;DHT22;35723;51.194;5.112;2022-11-04T06:11:19;12.60;99.90
49829;DHT22;35723;51.194;5.112;2022-11-04T06:13:45;12.60;99.90
49829;DHT22;35723;51.194;5.112;2022-11-04T06:16:11;12.60;99.90
49829;DHT22;35723;51.194;5.112;2022-11-04T06:18:36;12.60;99.90
49829;DHT22;35723;51.194;5.112;2022-11-04T06:23:35;12.60;99.90
49829;DHT22;35723;51.194;5.112;2022-11-04T06:26:01;12.60;99.90
49829;DHT22;35723;51.194;5.112;2022-11-04T06:28:26;12.60;99.90
49829;DHT22;35723;51.194;5.112;2022-11-04T06:30:52;12.60;99.90
49829;DHT22;35723;51.194;5.112;2022-11-04T06:33:18;12.50;99.90
49829;DHT22;35723;51.194;5.112;2022-11-04T06:35:44;12.50;99.90
49829;DHT22;35723;51.194;5.112;2022-11-04T06:38:09;12.60;99.90
49829;DHT22;35723;51.194;5.112;2022-11-04T06:40:35;12.50;99.90
49829;DHT22;35723;51.194;5.112;2022-11-04T06:43:00;12.50;99.90
49829;DHT22;35723;51.194;5.112;2022-11-04T06:45:26;12.60;99.90
49829;DHT22;35723;51.194;5.112;2022-11-04T06:47:52;12.60;99.90
49829;DHT22;35723;51.194;5.112;2022-11-04T06:50:17;12.60;99.90
49829;DHT22;35723;51.194;5.112;2022-11-04T06:52:43;12.60;99.90
49829;DHT22;35723;51.194;5.112;2022-11-04T06:55:09;12.60;99.90
49829;DHT22;35723;51.194;5.112;2022-11-04T06:57:34;12.60;99.90
49829;DHT22;35723;51.194;5.112;2022-11-04T07:00:00;12.60;99.90
49829;DHT22;35723;51.194;5.112;2022-11-04T07:02:26;12.60;99.90
49829;DHT22;35723;51.194;5.112;2022-11-04T07:04:51;12.60;99.90
49829;DHT22;35723;51.194;5.112;2022-11-04T07:07:17;12.60;99.90
49829;DHT22;35723;51.194;5.112;2022-11-04T07:09:44;12.50;99.90
49829;DHT22;35723;51.194;5.112;2022-11-04T07:12:10;12.50;99.90
49829;DHT22;35723;51.194;5.112;2022-11-04T07:14:35;12.50;99.90
49829;DHT22;35723;51.194;5.112;2022-11-04T07:17:01;12.50;99.90
49829;DHT22;35723;51.194;5.112;2022-11-04T07:19:26;12.50;99.90
49829;DHT22;35723;51.194;5.112;2022-11-04T07:21:52;12.50;99.90
49829;DHT22;35723;51.194;5.112;2022-11-04T07:24:18;12.50;99.90
49829;DHT22;35723;51.194;5.112;2022-11-04T07:26:43;12.60;99.90
49829;DHT22;35723;51.194;5.112;2022-11-04T07:29:09;12.50;99.90
49829;DHT22;35723;51.194;5.112;2022-11-04T07:31:36;12.50;99.90
49829;DHT22;35723;51.194;5.112;2022-11-04T07:34:02;12.60;99.90
49829;DHT22;35723;51.194;5.112;2022-11-04T07:36:27;12.60;99.90
49829;DHT22;35723;51.194;5.112;2022-11-04T07:38:53;12.50;99.90
49829;DHT22;35723;51.194;5.112;2022-11-04T07:41:20;12.60;99.90
49829;DHT22;35723;51.194;5.112;2022-11-04T07:43:48;12.60;99.90
49829;DHT22;35723;51.194;5.112;2022-11-04T07:46:14;12.60;99.90
49829;DHT22;35723;51.194;5.112;2022-11-04T07:48:40;12.60;99.90
49829;DHT22;35723;51.194;5.112;2022-11-04T07:51:07;12.60;99.90
49829;DHT22;35723;51.194;5.112;2022-11-04T07:53:39;12.60;99.90
49829;DHT22;35723;51.194;5.112;2022-11-04T07:56:06;12.60;99.90
49829;DHT22;35723;51.194;5.112;2022-11-04T07:58:32;12.60;99.90
49829;DHT22;35723;51.194;5.112;2022-11-04T08:00:59;12.70;99.90
49829;DHT22;35723;51.194;5.112;2022-11-04T08:03:25;12.70;99.90
49829;DHT22;35723;51.194;5.112;2022-11-04T08:05:59;12.60;99.90
49829;DHT22;35723;51.194;5.112;2022-11-04T08:08:25;12.70;99.90
49829;DHT22;35723;51.194;5.112;2022-11-04T08:10:56;12.60;99.90
49829;DHT22;35723;51.194;5.112;2022-11-04T08:13:22;12.70;99.90
49829;DHT22;35723;51.194;5.112;2022-11-04T08:15:48;12.70;99.90
49829;DHT22;35723;51.194;5.112;2022-11-04T08:18:14;12.70;99.90
49829;DHT22;35723;51.194;5.112;2022-11-04T08:20:40;12.80;99.90
49829;DHT22;35723;51.194;5.112;2022-11-04T08:23:05;12.80;99.90
49829;DHT22;35723;51.194;5.112;2022-11-04T08:25:32;12.80;99.90
49829;DHT22;35723;51.194;5.112;2022-11-04T08:27:57;12.80;99.90
49829;DHT22;35723;51.194;5.112;2022-11-04T08:30:23;12.80;99.90
49829;DHT22;35723;51.194;5.112;2022-11-04T08:32:48;12.80;99.90
49829;DHT22;35723;51.194;5.112;2022-11-04T08:35:14;12.80;99.90
49829;DHT22;35723;51.194;5.112;2022-11-04T08:37:40;12.90;99.90
49829;DHT22;35723;51.194;5.112;2022-11-04T08:40:06;12.70;99.90
49829;DHT22;35723;51.194;5.112;2022-11-04T08:42:32;12.60;99.90
49829;DHT22;35723;51.194;5.112;2022-11-04T08:44:57;12.70;99.90
49829;DHT22;35723;51.194;5.112;2022-11-04T08:47:23;12.70;99.90
49829;DHT22;35723;51.194;5.112;2022-11-04T08:49:49;12.80;99.90
49829;DHT22;35723;51.194;5.112;2022-11-04T08:52:14;12.80;99.90
49829;DHT22;35723;51.194;5.112;2022-11-04T08:54:40;12.90;99.90
49829;DHT22;35723;51.194;5.112;2022-11-04T08:57:06;13.00;99.90
49829;DHT22;35723;51.194;5.112;2022-11-04T08:59:32;12.90;99.90
49829;DHT22;35723;51.194;5.112;2022-11-04T09:01:58;13.00;99.90
49829;DHT22;35723;51.194;5.112;2022-11-04T09:04:24;13.10;99.90
49829;DHT22;35723;51.194;5.112;2022-11-04T09:06:49;13.20;99.90
49829;DHT22;35723;51.194;5.112;2022-11-04T09:09:16;13.30;99.90
49829;DHT22;35723;51.194;5.112;2022-11-04T09:11:43;13.40;99.90
49829;DHT22;35723;51.194;5.112;2022-11-04T09:14:10;13.50;99.90
49829;DHT22;35723;51.194;5.112;2022-11-04T09:16:36;13.50;99.90
49829;DHT22;35723;51.194;5.112;2022-11-04T09:19:03;13.50;99.90
49829;DHT22;35723;51.194;5.112;2022-11-04T09:21:28;13.40;99.90
49829;DHT22;35723;51.194;5.112;2022-11-04T09:23:55;13.50;99.90
49829;DHT22;35723;51.194;5.112;2022-11-04T09:26:21;13.50;99.90
49829;DHT22;35723;51.194;5.112;2022-11-04T09:28:51;13.50;99.90
49829;DHT22;35723;51.194;5.112;2022-11-04T09:31:18;13.50;99.90
49829;DHT22;35723;51.194;5.112;2022-11-04T09:33:44;13.50;99.90
49829;DHT22;35723;51.194;5.112;2022-11-04T09:36:11;13.40;99.90
49829;DHT22;35723;51.194;5.112;2022-11-04T09:38:38;13.50;99.90
49829;DHT22;35723;51.194;5.112;2022-11-04T09:46:39;13.50;99.90
49829;DHT22;35723;51.194;5.112;2022-11-04T09:49:08;13.40;99.90
49829;DHT22;35723;51.194;5.112;2022-11-04T09:51:35;13.40;99.90
49829;DHT22;35723;51.194;5.112;2022-11-04T09:54:09;13.40;99.90
49829;DHT22;35723;51.194;5.112;2022-11-04T09:56:38;13.40;99.90
49829;DHT22;35723;51.194;5.112;2022-11-04T09:59:08;13.50;99.90
49829;DHT22;35723;51.194;5.112;2022-11-04T10:01:46;13.40;99.90
49829;DHT22;35723;51.194;5.112;2022-11-04T10:04:19;13.40;99.90
49829;DHT22;35723;51.194;5.112;2022-11-04T10:07:32;13.40;99.90
49829;DHT22;35723;51.194;5.112;2022-11-04T10:18:06;13.70;99.90
49829;DHT22;35723;51.194;5.112;2022-11-04T10:20:46;13.70;99.90
49829;DHT22;35723;51.194;5.112;2022-11-04T10:23:26;13.70;99.90
49829;DHT22;35723;51.194;5.112;2022-11-04T10:26:09;13.70;99.90
49829;DHT22;35723;51.194;5.112;2022-11-04T10:28:44;13.80;99.90
49829;DHT22;35723;51.194;5.112;2022-11-04T10:31:14;13.90;99.90
49829;DHT22;35723;51.194;5.112;2022-11-04T10:33:45;14.00;99.90
49829;DHT22;35723;51.194;5.112;2022-11-04T10:36:12;14.00;99.90
49829;DHT22;35723;51.194;5.112;2022-11-04T10:38:58;14.00;99.90
49829;DHT22;35723;51.194;5.112;2022-11-04T10:41:33;14.10;99.90
49829;DHT22;35723;51.194;5.112;2022-11-04T10:44:20;14.10;99.90
49829;DHT22;35723;51.194;5.112;2022-11-04T10:52:17;14.10;99.90
49829;DHT22;35723;51.194;5.112;2022-11-04T10:54:46;14.10;99.90
49829;DHT22;35723;51.194;5.112;2022-11-04T10:57:25;14.10;99.90
49829;DHT22;35723;51.194;5.112;2022-11-04T10:59:58;14.00;99.90
49829;DHT22;35723;51.194;5.112;2022-11-04T11:02:42;14.00;99.90
49829;DHT22;35723;51.194;5.112;2022-11-04T11:07:47;14.00;99.90
49829;DHT22;35723;51.194;5.112;2022-11-04T11:10:24;14.00;99.90
49829;DHT22;35723;51.194;5.112;2022-11-04T11:12:56;14.00;99.90
49829;DHT22;35723;51.194;5.112;2022-11-04T11:15:31;13.90;99.90
49829;DHT22;35723;51.194;5.112;2022-11-04T11:20:32;14.00;99.90
49829;DHT22;35723;51.194;5.112;2022-11-04T11:23:02;13.90;99.90
49829;DHT22;35723;51.194;5.112;2022-11-04T11:25:31;13.90;99.90
49829;DHT22;35723;51.194;5.112;2022-11-04T11:28:05;14.00;99.90
49829;DHT22;35723;51.194;5.112;2022-11-04T11:33:07;14.10;99.90
49829;DHT22;35723;51.194;5.112;2022-11-04T11:35:44;14.10;99.90
49829;DHT22;35723;51.194;5.112;2022-11-04T11:38:30;14.10;99.90
49829;DHT22;35723;51.194;5.112;2022-11-04T11:41:08;14.20;99.90
49829;DHT22;35723;51.194;5.112;2022-11-04T11:43:37;14.20;99.90
49829;DHT22;35723;51.194;5.112;2022-11-04T11:46:04;14.20;99.90
49829;DHT22;35723;51.194;5.112;2022-11-04T11:48:42;14.30;99.90
49829;DHT22;35723;51.194;5.112;2022-11-04T11:51:12;14.30;99.90
49829;DHT22;35723;51.194;5.112;2022-11-04T11:53:38;14.40;99.90
49829;DHT22;35723;51.194;5.112;2022-11-04T11:58:43;14.60;99.90
49829;DHT22;35723;51.194;5.112;2022-11-04T12:03:55;14.70;99.90
49829;DHT22;35723;51.194;5.112;2022-11-04T12:06:27;14.70;99.90
49829;DHT22;35723;51.194;5.112;2022-11-04T12:17:06;14.70;99.90
49829;DHT22;35723;51.194;5.112;2022-11-04T12:19:53;14.70;99.90
49829;DHT22;35723;51.194;5.112;2022-11-04T12:22:38;14.70;99.90
49829;DHT22;35723;51.194;5.112;2022-11-04T12:28:06;14.60;99.90
49829;DHT22;35723;51.194;5.112;2022-11-04T12:30:45;14.60;99.90
49829;DHT22;35723;51.194;5.112;2022-11-04T12:33:24;14.60;99.90
49829;DHT22;35723;51.194;5.112;2022-11-04T12:41:17;14.70;99.90
49829;DHT22;35723;51.194;5.112;2022-11-04T12:46:47;14.70;99.90
49829;DHT22;35723;51.194;5.112;2022-11-04T13:00:13;14.10;99.90
49829;DHT22;35723;51.194;5.112;2022-11-04T13:05:41;14.20;99.90
49829;DHT22;35723;51.194;5.112;2022-11-04T13:08:23;14.40;99.90
49829;DHT22;35723;51.194;5.112;2022-11-04T13:11:19;14.50;99.90
49829;DHT22;35723;51.194;5.112;2022-11-04T13:14:11;14.60;99.90
49829;DHT22;35723;51.194;5.112;2022-11-04T13:16:42;14.60;99.90
49829;DHT22;35723;51.194;5.112;2022-11-04T13:21:56;14.80;99.90
49829;DHT22;35723;51.194;5.112;2022-11-04T13:26:48;14.90;99.90
49829;DHT22;35723;51.194;5.112;2022-11-04T13:29:17;14.90;99.90
49829;DHT22;35723;51.194;5.112;2022-11-04T13:32:03;15.00;99.90
49829;DHT22;35723;51.194;5.112;2022-11-04T13:34:45;15.10;99.90
49829;DHT22;35723;51.194;5.112;2022-11-04T13:38:15;15.00;99.90
49829;DHT22;35723;51.194;5.112;2022-11-04T13:43:29;15.10;99.90
49829;DHT22;35723;51.194;5.112;2022-11-04T13:46:15;15.10;99.90
49829;DHT22;35723;51.194;5.112;2022-11-04T13:49:05;15.00;99.90
49829;DHT22;35723;51.194;5.112;2022-11-04T13:51:59;15.10;99.90
49829;DHT22;35723;51.194;5.112;2022-11-04T13:54:40;15.10;99.90
49829;DHT22;35723;51.194;5.112;2022-11-04T13:59:39;15.10;99.90
49829;DHT22;35723;51.194;5.112;2022-11-04T14:04:43;15.20;99.90
49829;DHT22;35723;51.194;5.112;2022-11-04T14:07:11;15.20;99.90
49829;DHT22;35723;51.194;5.112;2022-11-04T14:14:41;15.30;99.90
49829;DHT22;35723;51.194;5.112;2022-11-04T14:25:33;15.20;99.90
49829;DHT22;35723;51.194;5.112;2022-11-04T14:28:27;15.20;99.90
49829;DHT22;35723;51.194;5.112;2022-11-04T14:30:53;15.20;99.90
49829;DHT22;35723;51.194;5.112;2022-11-04T14:38:44;15.10;99.90
49829;DHT22;35723;51.194;5.112;2022-11-04T14:44:00;15.10;99.90
49829;DHT22;35723;51.194;5.112;2022-11-04T14:46:34;15.10;99.90
49829;DHT22;35723;51.194;5.112;2022-11-04T14:49:05;15.10;99.90
49829;DHT22;35723;51.194;5.112;2022-11-04T14:51:38;15.00;99.90
49829;DHT22;35723;51.194;5.112;2022-11-04T14:54:15;15.00;99.90
49829;DHT22;35723;51.194;5.112;2022-11-04T14:56:44;15.00;99.90
49829;DHT22;35723;51.194;5.112;2022-11-04T14:59:23;15.00;99.90
49829;DHT22;35723;51.194;5.112;2022-11-04T15:01:49;15.00;99.90
49829;DHT22;35723;51.194;5.112;2022-11-04T15:04:26;15.00;99.90
49829;DHT22;35723;51.194;5.112;2022-11-04T15:06:54;15.00;99.90
49829;DHT22;35723;51.194;5.112;2022-11-04T15:09:29;14.90;99.90
49829;DHT22;35723;51.194;5.112;2022-11-04T15:14:54;14.90;99.90
49829;DHT22;35723;51.194;5.112;2022-11-04T15:17:21;14.80;99.90
49829;DHT22;35723;51.194;5.112;2022-11-04T15:19:52;14.80;99.90
49829;DHT22;35723;51.194;5.112;2022-11-04T15:22:19;14.80;99.90
49829;DHT22;35723;51.194;5.112;2022-11-04T15:24:45;14.70;99.90
49829;DHT22;35723;51.194;5.112;2022-11-04T15:27:16;14.70;99.90
49829;DHT22;35723;51.194;5.112;2022-11-04T15:29:57;14.80;99.90
49829;DHT22;35723;51.194;5.112;2022-11-04T15:32:24;14.80;99.90
49829;DHT22;35723;51.194;5.112;2022-11-04T15:34:50;14.70;99.90
49829;DHT22;35723;51.194;5.112;2022-11-04T15:37:17;14.70;99.90
49829;DHT22;35723;51.194;5.112;2022-11-04T15:39:45;14.70;99.90
49829;DHT22;35723;51.194;5.112;2022-11-04T15:42:28;14.60;99.90
49829;DHT22;35723;51.194;5.112;2022-11-04T15:45:18;14.70;99.90
49829;DHT22;35723;51.194;5.112;2022-11-04T15:53:45;14.50;99.90
49829;DHT22;35723;51.194;5.112;2022-11-04T15:56:14;14.40;99.90
49829;DHT22;35723;51.194;5.112;2022-11-04T15:58:41;14.40;99.90
49829;DHT22;35723;51.194;5.112;2022-11-04T16:01:13;14.40;99.90
49829;DHT22;35723;51.194;5.112;2022-11-04T16:03:40;14.40;99.90
49829;DHT22;35723;51.194;5.112;2022-11-04T16:06:07;14.30;99.90
49829;DHT22;35723;51.194;5.112;2022-11-04T16:08:33;14.30;99.90
49829;DHT22;35723;51.194;5.112;2022-11-04T16:11:14;14.30;99.90
49829;DHT22;35723;51.194;5.112;2022-11-04T16:13:40;14.30;99.90
49829;DHT22;35723;51.194;5.112;2022-11-04T16:18:57;14.20;99.90
49829;DHT22;35723;51.194;5.112;2022-11-04T16:21:32;14.20;99.90
49829;DHT22;35723;51.194;5.112;2022-11-04T16:24:17;14.20;99.90
49829;DHT22;35723;51.194;5.112;2022-11-04T16:26:45;14.20;99.90
49829;DHT22;35723;51.194;5.112;2022-11-04T16:29:19;14.20;99.90
49829;DHT22;35723;51.194;5.112;2022-11-04T16:32:06;14.10;99.90
49829;DHT22;35723;51.194;5.112;2022-11-04T16:34:33;14.20;99.90
49829;DHT22;35723;51.194;5.112;2022-11-04T16:36:59;14.10;99.90
49829;DHT22;35723;51.194;5.112;2022-11-04T16:39:24;14.00;99.90
49829;DHT22;35723;51.194;5.112;2022-11-04T16:41:50;13.90;99.90
49829;DHT22;35723;51.194;5.112;2022-11-04T16:44:20;13.90;99.90
49829;DHT22;35723;51.194;5.112;2022-11-04T16:46:46;13.80;99.90
49829;DHT22;35723;51.194;5.112;2022-11-04T16:49:14;13.80;99.90
49829;DHT22;35723;51.194;5.112;2022-11-04T16:51:40;13.70;99.90
49829;DHT22;35723;51.194;5.112;2022-11-04T16:54:06;13.60;99.90
49829;DHT22;35723;51.194;5.112;2022-11-04T16:56:32;13.70;99.90
49829;DHT22;35723;51.194;5.112;2022-11-04T16:58:58;13.70;99.90
49829;DHT22;35723;51.194;5.112;2022-11-04T17:01:24;13.70;99.90
49829;DHT22;35723;51.194;5.112;2022-11-04T17:03:49;13.60;99.90
49829;DHT22;35723;51.194;5.112;2022-11-04T17:06:16;13.60;99.90
49829;DHT22;35723;51.194;5.112;2022-11-04T17:08:42;13.40;99.90
49829;DHT22;35723;51.194;5.112;2022-11-04T17:11:08;13.30;99.90
49829;DHT22;35723;51.194;5.112;2022-11-04T17:13:34;13.40;99.90
49829;DHT22;35723;51.194;5.112;2022-11-04T17:16:00;13.30;99.90
49829;DHT22;35723;51.194;5.112;2022-11-04T17:18:29;13.30;99.90
49829;DHT22;35723;51.194;5.112;2022-11-04T17:20:55;13.30;99.90
49829;DHT22;35723;51.194;5.112;2022-11-04T17:23:21;13.30;99.90
49829;DHT22;35723;51.194;5.112;2022-11-04T17:25:48;13.30;99.90
49829;DHT22;35723;51.194;5.112;2022-11-04T17:28:13;13.20;99.90
49829;DHT22;35723;51.194;5.112;2022-11-04T17:30:40;13.20;99.90
49829;DHT22;35723;51.194;5.112;2022-11-04T17:33:12;13.20;99.90
49829;DHT22;35723;51.194;5.112;2022-11-04T17:35:39;13.20;99.90
49829;DHT22;35723;51.194;5.112;2022-11-04T17:38:05;13.20;99.90
49829;DHT22;35723;51.194;5.112;2022-11-04T17:40:31;13.10;99.90
49829;DHT22;35723;51.194;5.112;2022-11-04T17:42:57;13.00;99.90
49829;DHT22;35723;51.194;5.112;2022-11-04T17:45:42;12.90;99.90
49829;DHT22;35723;51.194;5.112;2022-11-04T17:48:08;12.90;99.90
49829;DHT22;35723;51.194;5.112;2022-11-04T17:50:37;13.00;99.90
49829;DHT22;35723;51.194;5.112;2022-11-04T17:53:03;13.00;99.90
49829;DHT22;35723;51.194;5.112;2022-11-04T17:55:29;13.00;99.90
49829;DHT22;35723;51.194;5.112;2022-11-04T17:57:54;13.00;99.90
49829;DHT22;35723;51.194;5.112;2022-11-04T18:00:20;12.90;99.90
49829;DHT22;35723;51.194;5.112;2022-11-04T18:02:48;12.90;99.90
49829;DHT22;35723;51.194;5.112;2022-11-04T18:05:14;12.80;99.90
49829;DHT22;35723;51.194;5.112;2022-11-04T18:07:40;12.70;99.90
49829;DHT22;35723;51.194;5.112;2022-11-04T18:10:07;12.60;99.90
49829;DHT22;35723;51.194;5.112;2022-11-04T18:12:32;12.70;99.90
49829;DHT22;35723;51.194;5.112;2022-11-04T18:15:14;12.70;99.90
49829;DHT22;35723;51.194;5.112;2022-11-04T18:17:44;12.80;99.90